sensor_id;sensor_type;location;lat;lon;timestamp;P1;durP1;ratioP1;P2;durP2;ratioP2
9388;SDS011;4734;52.778;6.798;2023-07-31T00:01:55;2.35;;;1.83;;
9388;SDS011;4734;52.778;6.798;2023-07-31T00:04:41;2.42;;;1.90;;
9388;SDS011;4734;52.778;6.798;2023-07-31T00:07:28;2.33;;;2.13;;
9388;SDS011;4734;52.778;6.798;2023-07-31T00:10:13;2.13;;;1.92;;
9388;SDS011;4734;52.778;6.798;2023-07-31T00:12:59;2.28;;;2.08;;
9388;SDS011;4734;52.778;6.798;2023-07-31T00:15:44;3.38;;;2.00;;
9388;SDS011;4734;52.778;6.798;2023-07-31T00:18:30;2.25;;;2.08;;
9388;SDS011;4734;52.778;6.798;2023-07-31T00:21:15;2.28;;;2.00;;
9388;SDS011;4734;52.778;6.798;2023-07-31T00:24:02;2.38;;;2.15;;
9388;SDS011;4734;52.778;6.798;2023-07-31T00:26:48;2.20;;;2.00;;
9388;SDS011;4734;52.778;6.798;2023-07-31T00:29:34;1.80;;;1.70;;
9388;SDS011;4734;52.778;6.798;2023-07-31T00:32:19;2.50;;;2.30;;
9388;SDS011;4734;52.778;6.798;2023-07-31T00:35:05;1.90;;;1.80;;
9388;SDS011;4734;52.778;6.798;2023-07-31T00:37:51;2.10;;;1.90;;
9388;SDS011;4734;52.778;6.798;2023-07-31T00:40:38;2.13;;;1.90;;
9388;SDS011;4734;52.778;6.798;2023-07-31T00:43:24;2.67;;;1.70;;
9388;SDS011;4734;52.778;6.798;2023-07-31T00:46:09;1.85;;;1.75;;
9388;SDS011;4734;52.778;6.798;2023-07-31T00:48:55;3.00;;;1.88;;
9388;SDS011;4734;52.778;6.798;2023-07-31T00:51:41;2.10;;;1.98;;
9388;SDS011;4734;52.778;6.798;2023-07-31T00:54:27;2.15;;;1.95;;
9388;SDS011;4734;52.778;6.798;2023-07-31T00:57:14;1.83;;;1.73;;
9388;SDS011;4734;52.778;6.798;2023-07-31T01:00:00;1.90;;;1.80;;
9388;SDS011;4734;52.778;6.798;2023-07-31T01:02:47;1.83;;;1.67;;
9388;SDS011;4734;52.778;6.798;2023-07-31T01:05:36;1.73;;;1.63;;
9388;SDS011;4734;52.778;6.798;2023-07-31T01:08:29;2.03;;;1.90;;
9388;SDS011;4734;52.778;6.798;2023-07-31T01:11:21;1.70;;;1.60;;
9388;SDS011;4734;52.778;6.798;2023-07-31T01:14:11;3.00;;;1.83;;
9388;SDS011;4734;52.778;6.798;2023-07-31T01:16:57;1.85;;;1.75;;
9388;SDS011;4734;52.778;6.798;2023-07-31T01:19:43;2.50;;;1.88;;
9388;SDS011;4734;52.778;6.798;2023-07-31T01:22:33;1.65;;;1.55;;
9388;SDS011;4734;52.778;6.798;2023-07-31T01:25:35;1.48;;;1.38;;
9388;SDS011;4734;52.778;6.798;2023-07-31T01:28:37;1.70;;;1.60;;
9388;SDS011;4734;52.778;6.798;2023-07-31T01:31:31;1.52;;;1.42;;
9388;SDS011;4734;52.778;6.798;2023-07-31T01:34:18;2.10;;;1.58;;
9388;SDS011;4734;52.778;6.798;2023-07-31T01:37:05;1.40;;;1.30;;
9388;SDS011;4734;52.778;6.798;2023-07-31T01:39:51;1.33;;;1.23;;
9388;SDS011;4734;52.778;6.798;2023-07-31T01:42:38;1.50;;;1.40;;
9388;SDS011;4734;52.778;6.798;2023-07-31T01:45:23;1.40;;;1.30;;
9388;SDS011;4734;52.778;6.798;2023-07-31T01:48:09;1.10;;;1.10;;
9388;SDS011;4734;52.778;6.798;2023-07-31T01:50:55;1.10;;;1.10;;
9388;SDS011;4734;52.778;6.798;2023-07-31T01:53:41;1.02;;;0.93;;
9388;SDS011;4734;52.778;6.798;2023-07-31T01:56:26;1.33;;;1.23;;
9388;SDS011;4734;52.778;6.798;2023-07-31T01:59:13;1.75;;;1.20;;
9388;SDS011;4734;52.778;6.798;2023-07-31T02:01:58;1.02;;;1.02;;
9388;SDS011;4734;52.778;6.798;2023-07-31T02:04:44;1.05;;;1.00;;
9388;SDS011;4734;52.778;6.798;2023-07-31T02:07:30;1.33;;;1.23;;
9388;SDS011;4734;52.778;6.798;2023-07-31T02:10:15;1.27;;;1.17;;
9388;SDS011;4734;52.778;6.798;2023-07-31T02:13:01;1.33;;;1.25;;
9388;SDS011;4734;52.778;6.798;2023-07-31T02:15:49;1.17;;;1.08;;
9388;SDS011;4734;52.778;6.798;2023-07-31T02:18:35;1.00;;;1.00;;
9388;SDS011;4734;52.778;6.798;2023-07-31T02:21:21;1.10;;;1.10;;
9388;SDS011;4734;52.778;6.798;2023-07-31T02:24:06;1.00;;;1.00;;
9388;SDS011;4734;52.778;6.798;2023-07-31T02:26:52;1.48;;;1.10;;
9388;SDS011;4734;52.778;6.798;2023-07-31T02:29:37;1.20;;;1.20;;
9388;SDS011;4734;52.778;6.798;2023-07-31T02:32:25;0.98;;;0.98;;
9388;SDS011;4734;52.778;6.798;2023-07-31T02:35:10;1.67;;;1.10;;
9388;SDS011;4734;52.778;6.798;2023-07-31T02:37:59;1.00;;;1.00;;
9388;SDS011;4734;52.778;6.798;2023-07-31T02:40:44;1.15;;;1.10;;
9388;SDS011;4734;52.778;6.798;2023-07-31T02:43:30;1.02;;;1.02;;
9388;SDS011;4734;52.778;6.798;2023-07-31T02:46:15;1.33;;;1.23;;
9388;SDS011;4734;52.778;6.798;2023-07-31T02:49:03;1.48;;;1.20;;
9388;SDS011;4734;52.778;6.798;2023-07-31T02:51:48;2.15;;;1.08;;
9388;SDS011;4734;52.778;6.798;2023-07-31T02:54:34;1.23;;;1.13;;
9388;SDS011;4734;52.778;6.798;2023-07-31T02:57:19;1.45;;;1.10;;
9388;SDS011;4734;52.778;6.798;2023-07-31T03:00:05;1.08;;;1.08;;
9388;SDS011;4734;52.778;6.798;2023-07-31T03:02:53;1.10;;;1.10;;
9388;SDS011;4734;52.778;6.798;2023-07-31T03:05:40;1.00;;;1.00;;
9388;SDS011;4734;52.778;6.798;2023-07-31T03:08:25;1.50;;;1.20;;
9388;SDS011;4734;52.778;6.798;2023-07-31T03:11:11;1.38;;;1.30;;
9388;SDS011;4734;52.778;6.798;2023-07-31T03:13:56;1.50;;;1.40;;
9388;SDS011;4734;52.778;6.798;2023-07-31T03:16:42;1.30;;;1.30;;
9388;SDS011;4734;52.778;6.798;2023-07-31T03:19:30;1.50;;;1.40;;
9388;SDS011;4734;52.778;6.798;2023-07-31T03:22:17;1.33;;;1.23;;
9388;SDS011;4734;52.778;6.798;2023-07-31T03:25:03;1.50;;;1.40;;
9388;SDS011;4734;52.778;6.798;2023-07-31T03:27:49;1.60;;;1.50;;
9388;SDS011;4734;52.778;6.798;2023-07-31T03:30:35;1.60;;;1.50;;
9388;SDS011;4734;52.778;6.798;2023-07-31T03:33:22;1.42;;;1.42;;
9388;SDS011;4734;52.778;6.798;2023-07-31T03:36:07;1.40;;;1.40;;
9388;SDS011;4734;52.778;6.798;2023-07-31T03:38:54;1.75;;;1.58;;
9388;SDS011;4734;52.778;6.798;2023-07-31T03:41:40;1.48;;;1.40;;
9388;SDS011;4734;52.778;6.798;2023-07-31T03:44:25;1.27;;;1.17;;
9388;SDS011;4734;52.778;6.798;2023-07-31T03:47:11;1.27;;;1.20;;
9388;SDS011;4734;52.778;6.798;2023-07-31T03:49:57;0.93;;;0.93;;
9388;SDS011;4734;52.778;6.798;2023-07-31T03:52:42;1.13;;;1.10;;
9388;SDS011;4734;52.778;6.798;2023-07-31T03:55:29;1.83;;;1.00;;
9388;SDS011;4734;52.778;6.798;2023-07-31T03:58:15;0.93;;;0.93;;
9388;SDS011;4734;52.778;6.798;2023-07-31T04:01:01;1.30;;;1.20;;
9388;SDS011;4734;52.778;6.798;2023-07-31T04:03:46;1.38;;;1.27;;
9388;SDS011;4734;52.778;6.798;2023-07-31T04:06:32;1.17;;;1.10;;
9388;SDS011;4734;52.778;6.798;2023-07-31T04:09:18;1.10;;;1.10;;
9388;SDS011;4734;52.778;6.798;2023-07-31T04:12:05;1.40;;;1.05;;
9388;SDS011;4734;52.778;6.798;2023-07-31T04:14:51;1.10;;;1.10;;
9388;SDS011;4734;52.778;6.798;2023-07-31T04:17:36;1.20;;;1.10;;
9388;SDS011;4734;52.778;6.798;2023-07-31T04:20:22;1.05;;;0.90;;
9388;SDS011;4734;52.778;6.798;2023-07-31T04:23:08;1.83;;;1.00;;
9388;SDS011;4734;52.778;6.798;2023-07-31T04:25:53;1.00;;;1.00;;
9388;SDS011;4734;52.778;6.798;2023-07-31T04:28:40;1.13;;;0.93;;
9388;SDS011;4734;52.778;6.798;2023-07-31T04:31:26;1.65;;;0.82;;
9388;SDS011;4734;52.778;6.798;2023-07-31T04:34:11;0.70;;;0.68;;
9388;SDS011;4734;52.778;6.798;2023-07-31T04:36:57;1.15;;;1.05;;
9388;SDS011;4734;52.778;6.798;2023-07-31T04:39:42;1.17;;;1.00;;
9388;SDS011;4734;52.778;6.798;2023-07-31T04:42:28;1.50;;;0.90;;
9388;SDS011;4734;52.778;6.798;2023-07-31T04:45:15;1.10;;;1.00;;
9388;SDS011;4734;52.778;6.798;2023-07-31T04:48:01;0.90;;;0.90;;
9388;SDS011;4734;52.778;6.798;2023-07-31T04:50:47;1.23;;;1.15;;
9388;SDS011;4734;52.778;6.798;2023-07-31T04:53:33;1.60;;;1.40;;
9388;SDS011;4734;52.778;6.798;2023-07-31T04:56:18;1.85;;;1.50;;
9388;SDS011;4734;52.778;6.798;2023-07-31T04:59:04;2.95;;;2.25;;
9388;SDS011;4734;52.778;6.798;2023-07-31T05:01:51;3.17;;;1.85;;
9388;SDS011;4734;52.778;6.798;2023-07-31T05:04:36;3.20;;;2.90;;
9388;SDS011;4734;52.778;6.798;2023-07-31T05:07:22;5.47;;;2.90;;
9388;SDS011;4734;52.778;6.798;2023-07-31T05:10:08;6.70;;;3.42;;
9388;SDS011;4734;52.778;6.798;2023-07-31T05:12:54;6.65;;;3.67;;
9388;SDS011;4734;52.778;6.798;2023-07-31T05:15:40;8.63;;;4.32;;
9388;SDS011;4734;52.778;6.798;2023-07-31T05:18:27;9.07;;;4.63;;
9388;SDS011;4734;52.778;6.798;2023-07-31T05:21:12;9.63;;;4.47;;
9388;SDS011;4734;52.778;6.798;2023-07-31T05:23:58;14.75;;;5.55;;
9388;SDS011;4734;52.778;6.798;2023-07-31T05:26:43;9.82;;;4.97;;
9388;SDS011;4734;52.778;6.798;2023-07-31T05:29:29;10.57;;;4.68;;
9388;SDS011;4734;52.778;6.798;2023-07-31T05:32:15;13.75;;;5.72;;
9388;SDS011;4734;52.778;6.798;2023-07-31T05:35:02;14.48;;;6.30;;
9388;SDS011;4734;52.778;6.798;2023-07-31T05:37:48;13.48;;;6.00;;
9388;SDS011;4734;52.778;6.798;2023-07-31T05:40:33;13.63;;;6.50;;
9388;SDS011;4734;52.778;6.798;2023-07-31T05:43:19;13.95;;;6.07;;
9388;SDS011;4734;52.778;6.798;2023-07-31T05:46:05;15.73;;;6.57;;
9388;SDS011;4734;52.778;6.798;2023-07-31T05:48:52;17.25;;;7.07;;
9388;SDS011;4734;52.778;6.798;2023-07-31T05:51:39;18.80;;;6.78;;
9388;SDS011;4734;52.778;6.798;2023-07-31T05:54:25;14.73;;;6.30;;
9388;SDS011;4734;52.778;6.798;2023-07-31T05:57:11;15.68;;;6.95;;
9388;SDS011;4734;52.778;6.798;2023-07-31T05:59:56;13.05;;;6.32;;
9388;SDS011;4734;52.778;6.798;2023-07-31T06:02:42;16.60;;;7.43;;
9388;SDS011;4734;52.778;6.798;2023-07-31T06:05:27;14.40;;;6.70;;
9388;SDS011;4734;52.778;6.798;2023-07-31T06:08:15;13.52;;;6.68;;
9388;SDS011;4734;52.778;6.798;2023-07-31T06:11:00;14.40;;;6.68;;
9388;SDS011;4734;52.778;6.798;2023-07-31T06:13:46;14.15;;;7.05;;
9388;SDS011;4734;52.778;6.798;2023-07-31T06:16:32;13.15;;;7.00;;
9388;SDS011;4734;52.778;6.798;2023-07-31T06:19:18;12.30;;;6.43;;
9388;SDS011;4734;52.778;6.798;2023-07-31T06:22:05;14.05;;;6.93;;
9388;SDS011;4734;52.778;6.798;2023-07-31T06:24:52;11.57;;;6.30;;
9388;SDS011;4734;52.778;6.798;2023-07-31T06:27:37;14.23;;;7.07;;
9388;SDS011;4734;52.778;6.798;2023-07-31T06:30:23;10.57;;;7.15;;
9388;SDS011;4734;52.778;6.798;2023-07-31T06:33:09;15.98;;;7.07;;
9388;SDS011;4734;52.778;6.798;2023-07-31T06:35:54;13.80;;;6.60;;
9388;SDS011;4734;52.778;6.798;2023-07-31T06:38:40;12.25;;;7.03;;
9388;SDS011;4734;52.778;6.798;2023-07-31T06:41:27;16.63;;;7.03;;
9388;SDS011;4734;52.778;6.798;2023-07-31T06:44:13;14.52;;;8.02;;
9388;SDS011;4734;52.778;6.798;2023-07-31T06:46:58;14.15;;;7.05;;
9388;SDS011;4734;52.778;6.798;2023-07-31T06:49:44;12.73;;;7.28;;
9388;SDS011;4734;52.778;6.798;2023-07-31T06:52:30;14.95;;;7.10;;
9388;SDS011;4734;52.778;6.798;2023-07-31T06:55:16;14.70;;;6.97;;
9388;SDS011;4734;52.778;6.798;2023-07-31T06:58:04;15.07;;;7.07;;
9388;SDS011;4734;52.778;6.798;2023-07-31T07:00:50;12.93;;;6.53;;
9388;SDS011;4734;52.778;6.798;2023-07-31T07:03:35;10.18;;;6.35;;
9388;SDS011;4734;52.778;6.798;2023-07-31T07:06:21;11.60;;;6.50;;
9388;SDS011;4734;52.778;6.798;2023-07-31T07:09:07;9.80;;;6.32;;
9388;SDS011;4734;52.778;6.798;2023-07-31T07:11:53;11.27;;;6.28;;
9388;SDS011;4734;52.778;6.798;2023-07-31T07:14:40;9.30;;;5.63;;
9388;SDS011;4734;52.778;6.798;2023-07-31T07:17:25;8.98;;;5.57;;
9388;SDS011;4734;52.778;6.798;2023-07-31T07:20:12;9.10;;;5.63;;
9388;SDS011;4734;52.778;6.798;2023-07-31T07:22:57;8.93;;;5.32;;
9388;SDS011;4734;52.778;6.798;2023-07-31T07:25:44;7.25;;;5.38;;
9388;SDS011;4734;52.778;6.798;2023-07-31T07:28:30;9.55;;;4.82;;
9388;SDS011;4734;52.778;6.798;2023-07-31T07:31:17;6.72;;;4.60;;
9388;SDS011;4734;52.778;6.798;2023-07-31T07:34:03;8.88;;;5.10;;
9388;SDS011;4734;52.778;6.798;2023-07-31T07:36:48;7.53;;;4.55;;
9388;SDS011;4734;52.778;6.798;2023-07-31T07:39:34;10.02;;;5.03;;
9388;SDS011;4734;52.778;6.798;2023-07-31T07:42:20;6.47;;;4.47;;
9388;SDS011;4734;52.778;6.798;2023-07-31T07:45:06;7.60;;;4.35;;
9388;SDS011;4734;52.778;6.798;2023-07-31T07:47:53;8.55;;;4.50;;
9388;SDS011;4734;52.778;6.798;2023-07-31T07:50:39;6.97;;;4.13;;
9388;SDS011;4734;52.778;6.798;2023-07-31T07:53:24;6.80;;;4.40;;
9388;SDS011;4734;52.778;6.798;2023-07-31T07:56:10;6.93;;;4.20;;
9388;SDS011;4734;52.778;6.798;2023-07-31T07:58:55;7.40;;;4.63;;
9388;SDS011;4734;52.778;6.798;2023-07-31T08:01:41;4.50;;;3.70;;
9388;SDS011;4734;52.778;6.798;2023-07-31T08:04:28;6.20;;;4.13;;
9388;SDS011;4734;52.778;6.798;2023-07-31T08:07:14;6.28;;;3.58;;
9388;SDS011;4734;52.778;6.798;2023-07-31T08:09:59;4.85;;;4.20;;
9388;SDS011;4734;52.778;6.798;2023-07-31T08:12:45;6.60;;;3.70;;
9388;SDS011;4734;52.778;6.798;2023-07-31T08:15:30;4.78;;;3.90;;
9388;SDS011;4734;52.778;6.798;2023-07-31T08:18:16;4.72;;;3.65;;
9388;SDS011;4734;52.778;6.798;2023-07-31T08:21:03;5.20;;;3.53;;
9388;SDS011;4734;52.778;6.798;2023-07-31T08:23:48;4.78;;;3.25;;
9388;SDS011;4734;52.778;6.798;2023-07-31T08:26:34;4.40;;;2.95;;
9388;SDS011;4734;52.778;6.798;2023-07-31T08:29:20;5.30;;;3.20;;
9388;SDS011;4734;52.778;6.798;2023-07-31T08:32:06;3.55;;;2.88;;
9388;SDS011;4734;52.778;6.798;2023-07-31T08:34:51;3.25;;;2.90;;
9388;SDS011;4734;52.778;6.798;2023-07-31T08:37:38;3.10;;;2.90;;
9388;SDS011;4734;52.778;6.798;2023-07-31T08:40:24;3.75;;;2.90;;
9388;SDS011;4734;52.778;6.798;2023-07-31T08:43:10;3.20;;;2.90;;
9388;SDS011;4734;52.778;6.798;2023-07-31T08:45:56;3.35;;;3.05;;
9388;SDS011;4734;52.778;6.798;2023-07-31T08:48:42;2.72;;;2.53;;
9388;SDS011;4734;52.778;6.798;2023-07-31T08:51:29;3.20;;;2.47;;
9388;SDS011;4734;52.778;6.798;2023-07-31T08:54:16;3.05;;;2.47;;
9388;SDS011;4734;52.778;6.798;2023-07-31T08:57:01;2.30;;;2.10;;
9388;SDS011;4734;52.778;6.798;2023-07-31T08:59:48;2.45;;;2.20;;
9388;SDS011;4734;52.778;6.798;2023-07-31T09:02:38;2.78;;;2.17;;
9388;SDS011;4734;52.778;6.798;2023-07-31T09:05:28;2.30;;;2.10;;
9388;SDS011;4734;52.778;6.798;2023-07-31T09:08:17;2.40;;;2.05;;
9388;SDS011;4734;52.778;6.798;2023-07-31T09:11:06;1.90;;;1.80;;
9388;SDS011;4734;52.778;6.798;2023-07-31T09:13:52;1.80;;;1.70;;
9388;SDS011;4734;52.778;6.798;2023-07-31T09:16:51;2.45;;;2.05;;
9388;SDS011;4734;52.778;6.798;2023-07-31T09:19:38;1.88;;;1.77;;
9388;SDS011;4734;52.778;6.798;2023-07-31T09:22:31;3.35;;;1.73;;
9388;SDS011;4734;52.778;6.798;2023-07-31T09:25:18;2.08;;;1.90;;
9388;SDS011;4734;52.778;6.798;2023-07-31T09:28:09;2.13;;;1.70;;
9388;SDS011;4734;52.778;6.798;2023-07-31T09:30:55;3.42;;;1.70;;
9388;SDS011;4734;52.778;6.798;2023-07-31T09:33:53;1.33;;;1.33;;
9388;SDS011;4734;52.778;6.798;2023-07-31T09:36:40;1.60;;;1.50;;
9388;SDS011;4734;52.778;6.798;2023-07-31T09:39:26;1.48;;;1.40;;
9388;SDS011;4734;52.778;6.798;2023-07-31T09:42:12;1.40;;;1.30;;
9388;SDS011;4734;52.778;6.798;2023-07-31T09:45:08;3.40;;;1.23;;
9388;SDS011;4734;52.778;6.798;2023-07-31T09:47:54;1.20;;;1.10;;
9388;SDS011;4734;52.778;6.798;2023-07-31T09:50:40;1.40;;;1.30;;
9388;SDS011;4734;52.778;6.798;2023-07-31T09:53:27;1.10;;;1.10;;
9388;SDS011;4734;52.778;6.798;2023-07-31T09:56:14;1.17;;;1.17;;
9388;SDS011;4734;52.778;6.798;2023-07-31T09:59:01;1.23;;;1.13;;
9388;SDS011;4734;52.778;6.798;2023-07-31T10:01:50;1.00;;;1.00;;
9388;SDS011;4734;52.778;6.798;2023-07-31T10:04:37;1.27;;;1.08;;
9388;SDS011;4734;52.778;6.798;2023-07-31T10:07:23;1.98;;;1.10;;
9388;SDS011;4734;52.778;6.798;2023-07-31T10:10:11;1.20;;;1.17;;
9388;SDS011;4734;52.778;6.798;2023-07-31T10:12:57;1.20;;;1.20;;
9388;SDS011;4734;52.778;6.798;2023-07-31T10:15:44;2.28;;;1.30;;
9388;SDS011;4734;52.778;6.798;2023-07-31T10:18:32;2.15;;;1.30;;
9388;SDS011;4734;52.778;6.798;2023-07-31T10:21:20;1.60;;;1.50;;
9388;SDS011;4734;52.778;6.798;2023-07-31T10:24:05;1.42;;;1.42;;
9388;SDS011;4734;52.778;6.798;2023-07-31T10:26:52;1.65;;;1.58;;
9388;SDS011;4734;52.778;6.798;2023-07-31T10:29:41;1.80;;;1.70;;
9388;SDS011;4734;52.778;6.798;2023-07-31T10:32:28;1.63;;;1.45;;
9388;SDS011;4734;52.778;6.798;2023-07-31T10:35:16;1.98;;;1.88;;
9388;SDS011;4734;52.778;6.798;2023-07-31T10:38:09;1.80;;;1.70;;
9388;SDS011;4734;52.778;6.798;2023-07-31T10:40:58;1.80;;;1.70;;
9388;SDS011;4734;52.778;6.798;2023-07-31T10:43:54;1.70;;;1.60;;
9388;SDS011;4734;52.778;6.798;2023-07-31T10:46:42;1.90;;;1.80;;
9388;SDS011;4734;52.778;6.798;2023-07-31T10:49:30;1.80;;;1.70;;
9388;SDS011;4734;52.778;6.798;2023-07-31T10:52:20;2.05;;;1.80;;
9388;SDS011;4734;52.778;6.798;2023-07-31T10:55:23;1.70;;;1.60;;
9388;SDS011;4734;52.778;6.798;2023-07-31T10:58:13;1.67;;;1.67;;
9388;SDS011;4734;52.778;6.798;2023-07-31T11:01:03;1.50;;;1.50;;
9388;SDS011;4734;52.778;6.798;2023-07-31T11:03:50;1.35;;;1.35;;
9388;SDS011;4734;52.778;6.798;2023-07-31T11:06:36;1.55;;;1.55;;
9388;SDS011;4734;52.778;6.798;2023-07-31T11:09:24;1.60;;;1.60;;
9388;SDS011;4734;52.778;6.798;2023-07-31T11:12:12;1.80;;;1.70;;
9388;SDS011;4734;52.778;6.798;2023-07-31T11:14:57;1.95;;;1.85;;
9388;SDS011;4734;52.778;6.798;2023-07-31T11:17:43;2.00;;;1.90;;
9388;SDS011;4734;52.778;6.798;2023-07-31T11:20:29;1.98;;;1.80;;
9388;SDS011;4734;52.778;6.798;2023-07-31T11:23:16;2.25;;;2.15;;
9388;SDS011;4734;52.778;6.798;2023-07-31T11:26:04;1.83;;;1.73;;
9388;SDS011;4734;52.778;6.798;2023-07-31T11:28:50;4.78;;;2.03;;
9388;SDS011;4734;52.778;6.798;2023-07-31T11:31:41;1.95;;;1.85;;
9388;SDS011;4734;52.778;6.798;2023-07-31T11:34:27;2.00;;;1.90;;
9388;SDS011;4734;52.778;6.798;2023-07-31T11:37:12;2.55;;;1.85;;
9388;SDS011;4734;52.778;6.798;2023-07-31T11:39:58;1.80;;;1.70;;
9388;SDS011;4734;52.778;6.798;2023-07-31T11:42:45;1.50;;;1.50;;
9388;SDS011;4734;52.778;6.798;2023-07-31T11:45:31;1.50;;;1.50;;
9388;SDS011;4734;52.778;6.798;2023-07-31T11:48:19;1.50;;;1.40;;
9388;SDS011;4734;52.778;6.798;2023-07-31T11:51:06;1.30;;;1.30;;
9388;SDS011;4734;52.778;6.798;2023-07-31T11:53:56;1.00;;;1.00;;
9388;SDS011;4734;52.778;6.798;2023-07-31T11:56:43;1.23;;;1.23;;
9388;SDS011;4734;52.778;6.798;2023-07-31T11:59:31;1.33;;;1.33;;
9388;SDS011;4734;52.778;6.798;2023-07-31T12:02:16;1.10;;;1.10;;
9388;SDS011;4734;52.778;6.798;2023-07-31T12:05:04;1.20;;;1.20;;
9388;SDS011;4734;52.778;6.798;2023-07-31T12:07:50;1.60;;;1.30;;
9388;SDS011;4734;52.778;6.798;2023-07-31T12:10:38;0.80;;;0.80;;
9388;SDS011;4734;52.778;6.798;2023-07-31T12:13:25;0.70;;;0.70;;
9388;SDS011;4734;52.778;6.798;2023-07-31T12:16:13;2.08;;;0.60;;
9388;SDS011;4734;52.778;6.798;2023-07-31T12:18:58;0.60;;;0.60;;
9388;SDS011;4734;52.778;6.798;2023-07-31T12:21:44;0.60;;;0.60;;
9388;SDS011;4734;52.778;6.798;2023-07-31T12:24:30;1.15;;;0.75;;
9388;SDS011;4734;52.778;6.798;2023-07-31T12:27:15;1.20;;;1.10;;
9388;SDS011;4734;52.778;6.798;2023-07-31T12:30:02;1.05;;;1.05;;
9388;SDS011;4734;52.778;6.798;2023-07-31T12:32:49;2.20;;;1.52;;
9388;SDS011;4734;52.778;6.798;2023-07-31T12:35:35;1.40;;;1.40;;
9388;SDS011;4734;52.778;6.798;2023-07-31T12:38:22;1.40;;;1.30;;
9388;SDS011;4734;52.778;6.798;2023-07-31T12:41:08;1.60;;;1.50;;
9388;SDS011;4734;52.778;6.798;2023-07-31T12:43:53;2.83;;;1.30;;
9388;SDS011;4734;52.778;6.798;2023-07-31T12:46:39;1.65;;;1.55;;
9388;SDS011;4734;52.778;6.798;2023-07-31T12:49:26;2.75;;;1.50;;
9388;SDS011;4734;52.778;6.798;2023-07-31T12:52:12;1.63;;;1.58;;
9388;SDS011;4734;52.778;6.798;2023-07-31T12:54:57;1.63;;;1.48;;
9388;SDS011;4734;52.778;6.798;2023-07-31T12:57:43;3.20;;;2.00;;
9388;SDS011;4734;52.778;6.798;2023-07-31T13:00:29;2.45;;;2.10;;
9388;SDS011;4734;52.778;6.798;2023-07-31T13:03:14;3.30;;;2.17;;
9388;SDS011;4734;52.778;6.798;2023-07-31T13:06:01;2.30;;;2.10;;
9388;SDS011;4734;52.778;6.798;2023-07-31T13:08:47;3.38;;;2.33;;
9388;SDS011;4734;52.778;6.798;2023-07-31T13:11:33;3.20;;;1.90;;
9388;SDS011;4734;52.778;6.798;2023-07-31T13:14:19;2.53;;;1.85;;
9388;SDS011;4734;52.778;6.798;2023-07-31T13:17:04;4.07;;;1.85;;
9388;SDS011;4734;52.778;6.798;2023-07-31T13:19:50;3.08;;;1.80;;
9388;SDS011;4734;52.778;6.798;2023-07-31T13:22:37;3.28;;;2.05;;
9388;SDS011;4734;52.778;6.798;2023-07-31T13:25:22;2.55;;;1.73;;
9388;SDS011;4734;52.778;6.798;2023-07-31T13:28:07;2.28;;;1.98;;
9388;SDS011;4734;52.778;6.798;2023-07-31T13:30:53;2.45;;;2.25;;
9388;SDS011;4734;52.778;6.798;2023-07-31T13:33:39;2.53;;;2.33;;
9388;SDS011;4734;52.778;6.798;2023-07-31T13:36:24;2.30;;;2.10;;
9388;SDS011;4734;52.778;6.798;2023-07-31T13:39:11;2.45;;;2.35;;
9388;SDS011;4734;52.778;6.798;2023-07-31T13:41:57;3.08;;;2.25;;
9388;SDS011;4734;52.778;6.798;2023-07-31T13:44:42;2.97;;;2.20;;
9388;SDS011;4734;52.778;6.798;2023-07-31T13:47:28;3.03;;;1.92;;
9388;SDS011;4734;52.778;6.798;2023-07-31T13:50:14;2.20;;;2.10;;
9388;SDS011;4734;52.778;6.798;2023-07-31T13:53:02;2.20;;;2.00;;
9388;SDS011;4734;52.778;6.798;2023-07-31T13:55:49;2.05;;;1.80;;
9388;SDS011;4734;52.778;6.798;2023-07-31T13:58:35;2.17;;;1.83;;
9388;SDS011;4734;52.778;6.798;2023-07-31T14:01:20;2.28;;;1.73;;
9388;SDS011;4734;52.778;6.798;2023-07-31T14:04:06;4.20;;;2.30;;
9388;SDS011;4734;52.778;6.798;2023-07-31T14:06:52;2.55;;;1.88;;
9388;SDS011;4734;52.778;6.798;2023-07-31T14:09:37;2.72;;;2.30;;
9388;SDS011;4734;52.778;6.798;2023-07-31T14:12:24;2.50;;;2.30;;
9388;SDS011;4734;52.778;6.798;2023-07-31T14:15:10;2.97;;;2.40;;
9388;SDS011;4734;52.778;6.798;2023-07-31T14:17:55;3.40;;;2.90;;
9388;SDS011;4734;52.778;6.798;2023-07-31T14:20:41;5.95;;;2.83;;
9388;SDS011;4734;52.778;6.798;2023-07-31T14:23:26;3.47;;;2.47;;
9388;SDS011;4734;52.778;6.798;2023-07-31T14:26:12;3.95;;;2.20;;
9388;SDS011;4734;52.778;6.798;2023-07-31T14:28:59;2.65;;;2.00;;
9388;SDS011;4734;52.778;6.798;2023-07-31T14:31:45;2.90;;;2.00;;
9388;SDS011;4734;52.778;6.798;2023-07-31T14:34:30;4.35;;;2.33;;
9388;SDS011;4734;52.778;6.798;2023-07-31T14:37:16;2.63;;;2.10;;
9388;SDS011;4734;52.778;6.798;2023-07-31T14:40:02;4.32;;;2.83;;
9388;SDS011;4734;52.778;6.798;2023-07-31T14:42:48;4.38;;;2.67;;
9388;SDS011;4734;52.778;6.798;2023-07-31T14:45:35;5.13;;;2.70;;
9388;SDS011;4734;52.778;6.798;2023-07-31T14:48:20;3.67;;;2.63;;
9388;SDS011;4734;52.778;6.798;2023-07-31T14:51:06;4.20;;;2.30;;
9388;SDS011;4734;52.778;6.798;2023-07-31T14:53:51;3.00;;;2.63;;
9388;SDS011;4734;52.778;6.798;2023-07-31T14:56:37;5.05;;;2.90;;
9388;SDS011;4734;52.778;6.798;2023-07-31T14:59:23;2.88;;;2.60;;
9388;SDS011;4734;52.778;6.798;2023-07-31T15:02:10;2.88;;;2.45;;
9388;SDS011;4734;52.778;6.798;2023-07-31T15:04:55;3.03;;;2.50;;
9388;SDS011;4734;52.778;6.798;2023-07-31T15:07:41;5.00;;;2.38;;
9388;SDS011;4734;52.778;6.798;2023-07-31T15:10:26;2.75;;;2.20;;
9388;SDS011;4734;52.778;6.798;2023-07-31T15:13:12;3.15;;;2.60;;
9388;SDS011;4734;52.778;6.798;2023-07-31T15:15:58;2.63;;;2.42;;
9388;SDS011;4734;52.778;6.798;2023-07-31T15:18:45;3.72;;;2.22;;
9388;SDS011;4734;52.778;6.798;2023-07-31T15:21:31;3.67;;;2.38;;
9388;SDS011;4734;52.778;6.798;2023-07-31T15:24:16;2.40;;;2.20;;
9388;SDS011;4734;52.778;6.798;2023-07-31T15:27:02;2.80;;;2.15;;
9388;SDS011;4734;52.778;6.798;2023-07-31T15:29:49;3.20;;;2.80;;
9388;SDS011;4734;52.778;6.798;2023-07-31T15:32:36;2.80;;;2.60;;
9388;SDS011;4734;52.778;6.798;2023-07-31T15:35:24;2.55;;;2.28;;
9388;SDS011;4734;52.778;6.798;2023-07-31T15:38:09;3.13;;;2.85;;
9388;SDS011;4734;52.778;6.798;2023-07-31T15:40:55;4.10;;;2.50;;
9388;SDS011;4734;52.778;6.798;2023-07-31T15:43:40;3.25;;;2.45;;
9388;SDS011;4734;52.778;6.798;2023-07-31T15:46:26;2.67;;;2.47;;
9388;SDS011;4734;52.778;6.798;2023-07-31T15:49:12;2.90;;;2.70;;
9388;SDS011;4734;52.778;6.798;2023-07-31T15:51:59;3.10;;;2.85;;
9388;SDS011;4734;52.778;6.798;2023-07-31T15:54:44;2.80;;;2.60;;
9388;SDS011;4734;52.778;6.798;2023-07-31T15:57:30;2.40;;;2.20;;
9388;SDS011;4734;52.778;6.798;2023-07-31T16:00:16;3.85;;;2.65;;
9388;SDS011;4734;52.778;6.798;2023-07-31T16:03:01;5.15;;;2.65;;
9388;SDS011;4734;52.778;6.798;2023-07-31T16:05:47;3.40;;;2.67;;
9388;SDS011;4734;52.778;6.798;2023-07-31T16:08:34;3.25;;;2.95;;
9388;SDS011;4734;52.778;6.798;2023-07-31T16:11:24;3.58;;;3.30;;
9388;SDS011;4734;52.778;6.798;2023-07-31T16:14:10;4.25;;;2.78;;
9388;SDS011;4734;52.778;6.798;2023-07-31T16:16:55;2.72;;;2.40;;
9388;SDS011;4734;52.778;6.798;2023-07-31T16:19:41;2.85;;;2.63;;
9388;SDS011;4734;52.778;6.798;2023-07-31T16:22:26;3.20;;;3.00;;
9388;SDS011;4734;52.778;6.798;2023-07-31T16:25:13;3.05;;;2.85;;
9388;SDS011;4734;52.778;6.798;2023-07-31T16:27:59;2.72;;;2.53;;
9388;SDS011;4734;52.778;6.798;2023-07-31T16:30:45;4.03;;;2.45;;
9388;SDS011;4734;52.778;6.798;2023-07-31T16:33:31;2.70;;;2.50;;
9388;SDS011;4734;52.778;6.798;2023-07-31T16:36:17;3.17;;;2.30;;
9388;SDS011;4734;52.778;6.798;2023-07-31T16:39:05;3.08;;;2.33;;
9388;SDS011;4734;52.778;6.798;2023-07-31T16:41:51;2.45;;;2.25;;
9388;SDS011;4734;52.778;6.798;2023-07-31T16:44:37;2.10;;;2.00;;
9388;SDS011;4734;52.778;6.798;2023-07-31T16:47:23;2.20;;;2.10;;
9388;SDS011;4734;52.778;6.798;2023-07-31T16:50:09;1.83;;;1.73;;
9388;SDS011;4734;52.778;6.798;2023-07-31T16:52:55;1.92;;;1.80;;
9388;SDS011;4734;52.778;6.798;2023-07-31T16:55:40;1.50;;;1.40;;
9388;SDS011;4734;52.778;6.798;2023-07-31T16:58:27;1.05;;;1.00;;
9388;SDS011;4734;52.778;6.798;2023-07-31T17:01:13;0.90;;;0.90;;
9388;SDS011;4734;52.778;6.798;2023-07-31T17:03:58;0.63;;;0.63;;
9388;SDS011;4734;52.778;6.798;2023-07-31T17:06:44;0.88;;;0.88;;
9388;SDS011;4734;52.778;6.798;2023-07-31T17:09:30;0.70;;;0.70;;
9388;SDS011;4734;52.778;6.798;2023-07-31T17:12:16;0.80;;;0.80;;
9388;SDS011;4734;52.778;6.798;2023-07-31T17:15:03;0.68;;;0.68;;